sensor_id;sensor_type;location;lat;lon;timestamp;P1;durP1;ratioP1;P2;durP2;ratioP2
43337;SDS011;28933;52.492;13.434;2023-03-04T00:00:25;28.40;;;17.92;;
43337;SDS011;28933;52.492;13.434;2023-03-04T00:02:51;27.02;;;15.23;;
43337;SDS011;28933;52.492;13.434;2023-03-04T00:05:17;31.30;;;16.50;;
43337;SDS011;28933;52.492;13.434;2023-03-04T00:07:42;28.77;;;16.98;;
43337;SDS011;28933;52.492;13.434;2023-03-04T00:10:08;28.27;;;17.27;;
43337;SDS011;28933;52.492;13.434;2023-03-04T00:12:34;31.98;;;18.13;;
43337;SDS011;28933;52.492;13.434;2023-03-04T00:15:00;31.25;;;17.42;;
43337;SDS011;28933;52.492;13.434;2023-03-04T00:17:26;28.80;;;15.80;;
43337;SDS011;28933;52.492;13.434;2023-03-04T00:19:54;28.73;;;15.30;;
43337;SDS011;28933;52.492;13.434;2023-03-04T00:22:20;28.30;;;15.77;;
43337;SDS011;28933;52.492;13.434;2023-03-04T00:24:45;28.83;;;15.35;;
43337;SDS011;28933;52.492;13.434;2023-03-04T00:27:11;30.50;;;16.88;;
43337;SDS011;28933;52.492;13.434;2023-03-04T00:29:36;27.73;;;16.63;;
43337;SDS011;28933;52.492;13.434;2023-03-04T00:32:02;26.60;;;16.90;;
43337;SDS011;28933;52.492;13.434;2023-03-04T00:34:28;31.52;;;16.13;;
43337;SDS011;28933;52.492;13.434;2023-03-04T00:36:54;28.25;;;15.18;;
43337;SDS011;28933;52.492;13.434;2023-03-04T00:39:25;29.63;;;15.95;;
43337;SDS011;28933;52.492;13.434;2023-03-04T00:41:53;30.08;;;16.48;;
43337;SDS011;28933;52.492;13.434;2023-03-04T00:44:19;27.55;;;15.40;;
43337;SDS011;28933;52.492;13.434;2023-03-04T00:46:45;25.77;;;13.48;;
43337;SDS011;28933;52.492;13.434;2023-03-04T00:49:10;30.45;;;15.90;;
43337;SDS011;28933;52.492;13.434;2023-03-04T00:51:36;29.45;;;15.38;;
43337;SDS011;28933;52.492;13.434;2023-03-04T00:54:01;29.77;;;15.20;;
43337;SDS011;28933;52.492;13.434;2023-03-04T00:56:27;30.13;;;15.35;;
43337;SDS011;28933;52.492;13.434;2023-03-04T00:58:53;37.20;;;15.30;;
43337;SDS011;28933;52.492;13.434;2023-03-04T01:01:19;26.48;;;14.45;;
43337;SDS011;28933;52.492;13.434;2023-03-04T01:03:45;28.17;;;13.88;;
43337;SDS011;28933;52.492;13.434;2023-03-04T01:06:10;27.48;;;15.02;;
43337;SDS011;28933;52.492;13.434;2023-03-04T01:08:36;27.60;;;15.50;;
43337;SDS011;28933;52.492;13.434;2023-03-04T01:11:02;27.73;;;12.65;;
43337;SDS011;28933;52.492;13.434;2023-03-04T01:13:28;30.05;;;14.13;;
43337;SDS011;28933;52.492;13.434;2023-03-04T01:15:53;28.20;;;14.50;;
43337;SDS011;28933;52.492;13.434;2023-03-04T01:18:20;23.83;;;13.48;;
43337;SDS011;28933;52.492;13.434;2023-03-04T01:20:45;27.20;;;13.50;;
43337;SDS011;28933;52.492;13.434;2023-03-04T01:23:11;23.70;;;12.20;;
43337;SDS011;28933;52.492;13.434;2023-03-04T01:25:37;24.80;;;13.15;;
43337;SDS011;28933;52.492;13.434;2023-03-04T01:28:03;28.25;;;13.13;;
43337;SDS011;28933;52.492;13.434;2023-03-04T01:30:31;29.00;;;13.18;;
43337;SDS011;28933;52.492;13.434;2023-03-04T01:32:57;24.13;;;12.88;;
43337;SDS011;28933;52.492;13.434;2023-03-04T01:35:22;24.55;;;11.35;;
43337;SDS011;28933;52.492;13.434;2023-03-04T01:37:48;23.42;;;11.50;;
43337;SDS011;28933;52.492;13.434;2023-03-04T01:40:14;19.63;;;12.10;;
43337;SDS011;28933;52.492;13.434;2023-03-04T01:42:40;25.05;;;11.55;;
43337;SDS011;28933;52.492;13.434;2023-03-04T01:45:06;22.30;;;11.00;;
43337;SDS011;28933;52.492;13.434;2023-03-04T01:47:35;24.85;;;11.23;;
43337;SDS011;28933;52.492;13.434;2023-03-04T01:50:01;22.05;;;10.10;;
43337;SDS011;28933;52.492;13.434;2023-03-04T01:52:29;22.52;;;10.50;;
43337;SDS011;28933;52.492;13.434;2023-03-04T01:54:55;17.25;;;9.45;;
43337;SDS011;28933;52.492;13.434;2023-03-04T01:57:22;21.00;;;9.48;;
43337;SDS011;28933;52.492;13.434;2023-03-04T02:02:45;18.27;;;8.80;;
43337;SDS011;28933;52.492;13.434;2023-03-04T02:05:17;21.38;;;9.15;;
43337;SDS011;28933;52.492;13.434;2023-03-04T02:07:44;16.33;;;7.43;;
43337;SDS011;28933;52.492;13.434;2023-03-04T02:10:10;23.45;;;9.52;;
43337;SDS011;28933;52.492;13.434;2023-03-04T02:12:36;20.00;;;9.43;;
43337;SDS011;28933;52.492;13.434;2023-03-04T02:15:03;16.35;;;8.10;;
43337;SDS011;28933;52.492;13.434;2023-03-04T02:17:30;23.85;;;8.65;;
43337;SDS011;28933;52.492;13.434;2023-03-04T02:20:09;20.63;;;8.50;;
43337;SDS011;28933;52.492;13.434;2023-03-04T02:22:46;18.85;;;8.60;;
43337;SDS011;28933;52.492;13.434;2023-03-04T02:28:33;19.83;;;8.43;;
43337;SDS011;28933;52.492;13.434;2023-03-04T02:30:58;17.65;;;7.80;;
43337;SDS011;28933;52.492;13.434;2023-03-04T02:33:24;17.45;;;7.50;;
43337;SDS011;28933;52.492;13.434;2023-03-04T02:35:50;19.10;;;7.60;;
43337;SDS011;28933;52.492;13.434;2023-03-04T02:38:15;18.50;;;7.60;;
43337;SDS011;28933;52.492;13.434;2023-03-04T02:40:42;16.73;;;7.20;;
43337;SDS011;28933;52.492;13.434;2023-03-04T02:43:11;12.55;;;6.75;;
43337;SDS011;28933;52.492;13.434;2023-03-04T02:45:44;16.25;;;7.80;;
43337;SDS011;28933;52.492;13.434;2023-03-04T02:48:12;15.80;;;7.23;;
43337;SDS011;28933;52.492;13.434;2023-03-04T02:50:43;22.73;;;7.18;;
43337;SDS011;28933;52.492;13.434;2023-03-04T02:53:11;15.32;;;7.10;;
43337;SDS011;28933;52.492;13.434;2023-03-04T02:55:36;18.33;;;6.35;;
43337;SDS011;28933;52.492;13.434;2023-03-04T02:58:02;27.40;;;7.75;;
43337;SDS011;28933;52.492;13.434;2023-03-04T03:00:28;21.92;;;7.68;;
43337;SDS011;28933;52.492;13.434;2023-03-04T03:02:54;17.63;;;6.78;;
43337;SDS011;28933;52.492;13.434;2023-03-04T03:05:23;20.17;;;7.88;;
43337;SDS011;28933;52.492;13.434;2023-03-04T03:07:51;18.45;;;6.82;;
43337;SDS011;28933;52.492;13.434;2023-03-04T03:10:17;25.92;;;7.63;;
43337;SDS011;28933;52.492;13.434;2023-03-04T03:12:43;17.75;;;6.28;;
43337;SDS011;28933;52.492;13.434;2023-03-04T03:15:09;15.20;;;6.07;;
43337;SDS011;28933;52.492;13.434;2023-03-04T03:17:35;19.70;;;6.95;;
43337;SDS011;28933;52.492;13.434;2023-03-04T03:20:01;15.45;;;6.28;;
43337;SDS011;28933;52.492;13.434;2023-03-04T03:22:29;13.50;;;6.30;;
43337;SDS011;28933;52.492;13.434;2023-03-04T03:24:55;13.63;;;6.70;;
43337;SDS011;28933;52.492;13.434;2023-03-04T03:27:20;14.10;;;5.40;;
43337;SDS011;28933;52.492;13.434;2023-03-04T03:29:46;15.55;;;5.72;;
43337;SDS011;28933;52.492;13.434;2023-03-04T03:32:11;12.75;;;5.90;;
43337;SDS011;28933;52.492;13.434;2023-03-04T03:34:37;10.20;;;5.13;;
43337;SDS011;28933;52.492;13.434;2023-03-04T03:37:03;14.63;;;6.20;;
43337;SDS011;28933;52.492;13.434;2023-03-04T03:39:28;16.55;;;6.25;;
43337;SDS011;28933;52.492;13.434;2023-03-04T03:41:54;12.50;;;5.60;;
43337;SDS011;28933;52.492;13.434;2023-03-04T03:44:19;13.13;;;6.00;;
43337;SDS011;28933;52.492;13.434;2023-03-04T03:46:45;11.93;;;5.55;;
43337;SDS011;28933;52.492;13.434;2023-03-04T03:49:11;17.35;;;6.25;;
43337;SDS011;28933;52.492;13.434;2023-03-04T03:51:37;15.63;;;6.43;;
43337;SDS011;28933;52.492;13.434;2023-03-04T03:54:03;12.32;;;5.45;;
43337;SDS011;28933;52.492;13.434;2023-03-04T03:56:28;17.92;;;7.00;;
43337;SDS011;28933;52.492;13.434;2023-03-04T03:58:54;12.40;;;6.13;;
43337;SDS011;28933;52.492;13.434;2023-03-04T04:01:19;13.02;;;6.15;;
43337;SDS011;28933;52.492;13.434;2023-03-04T04:03:45;17.85;;;6.13;;
43337;SDS011;28933;52.492;13.434;2023-03-04T04:06:11;14.50;;;5.25;;
43337;SDS011;28933;52.492;13.434;2023-03-04T04:08:36;12.73;;;5.72;;
43337;SDS011;28933;52.492;13.434;2023-03-04T04:11:02;12.20;;;5.60;;
43337;SDS011;28933;52.492;13.434;2023-03-04T04:13:28;15.98;;;6.47;;
43337;SDS011;28933;52.492;13.434;2023-03-04T04:15:54;14.23;;;5.03;;
43337;SDS011;28933;52.492;13.434;2023-03-04T04:18:19;10.50;;;5.18;;
43337;SDS011;28933;52.492;13.434;2023-03-04T04:20:45;13.23;;;5.75;;
43337;SDS011;28933;52.492;13.434;2023-03-04T04:23:11;9.15;;;5.32;;
43337;SDS011;28933;52.492;13.434;2023-03-04T04:25:39;13.93;;;6.20;;
43337;SDS011;28933;52.492;13.434;2023-03-04T04:28:05;13.98;;;5.35;;
43337;SDS011;28933;52.492;13.434;2023-03-04T04:30:31;11.50;;;5.70;;
43337;SDS011;28933;52.492;13.434;2023-03-04T04:32:56;16.75;;;5.57;;
43337;SDS011;28933;52.492;13.434;2023-03-04T04:35:25;10.65;;;6.13;;
43337;SDS011;28933;52.492;13.434;2023-03-04T04:37:51;13.70;;;6.50;;
43337;SDS011;28933;52.492;13.434;2023-03-04T04:40:17;15.50;;;6.15;;
43337;SDS011;28933;52.492;13.434;2023-03-04T04:42:43;14.27;;;6.38;;
43337;SDS011;28933;52.492;13.434;2023-03-04T04:45:08;17.33;;;6.10;;
43337;SDS011;28933;52.492;13.434;2023-03-04T04:47:34;16.30;;;6.13;;
43337;SDS011;28933;52.492;13.434;2023-03-04T04:50:00;15.07;;;6.50;;
43337;SDS011;28933;52.492;13.434;2023-03-04T04:52:26;14.65;;;6.00;;
43337;SDS011;28933;52.492;13.434;2023-03-04T04:54:51;10.20;;;5.18;;
43337;SDS011;28933;52.492;13.434;2023-03-04T04:57:17;20.58;;;6.40;;
43337;SDS011;28933;52.492;13.434;2023-03-04T04:59:43;12.50;;;5.28;;
43337;SDS011;28933;52.492;13.434;2023-03-04T05:02:08;19.17;;;5.72;;
43337;SDS011;28933;52.492;13.434;2023-03-04T05:04:34;10.35;;;4.38;;
43337;SDS011;28933;52.492;13.434;2023-03-04T05:06:59;13.27;;;4.75;;
43337;SDS011;28933;52.492;13.434;2023-03-04T05:09:25;10.45;;;5.63;;
43337;SDS011;28933;52.492;13.434;2023-03-04T05:11:51;16.10;;;5.35;;
43337;SDS011;28933;52.492;13.434;2023-03-04T05:14:16;12.20;;;5.05;;
43337;SDS011;28933;52.492;13.434;2023-03-04T05:16:42;15.48;;;5.38;;
43337;SDS011;28933;52.492;13.434;2023-03-04T05:19:07;14.45;;;5.32;;
43337;SDS011;28933;52.492;13.434;2023-03-04T05:21:33;13.73;;;5.05;;
43337;SDS011;28933;52.492;13.434;2023-03-04T05:23:59;11.23;;;5.20;;
43337;SDS011;28933;52.492;13.434;2023-03-04T05:26:24;13.00;;;5.53;;
43337;SDS011;28933;52.492;13.434;2023-03-04T05:28:50;9.50;;;4.97;;
43337;SDS011;28933;52.492;13.434;2023-03-04T05:31:15;9.52;;;4.18;;
43337;SDS011;28933;52.492;13.434;2023-03-04T05:33:42;11.35;;;4.88;;
43337;SDS011;28933;52.492;13.434;2023-03-04T05:36:07;10.52;;;3.97;;
43337;SDS011;28933;52.492;13.434;2023-03-04T05:38:33;12.25;;;3.90;;
43337;SDS011;28933;52.492;13.434;2023-03-04T05:41:00;11.00;;;4.35;;
43337;SDS011;28933;52.492;13.434;2023-03-04T05:43:27;12.80;;;4.25;;
43337;SDS011;28933;52.492;13.434;2023-03-04T05:45:54;11.63;;;4.88;;
43337;SDS011;28933;52.492;13.434;2023-03-04T05:48:19;9.98;;;5.20;;
43337;SDS011;28933;52.492;13.434;2023-03-04T05:50:45;10.68;;;4.22;;
43337;SDS011;28933;52.492;13.434;2023-03-04T05:53:11;9.98;;;4.60;;
43337;SDS011;28933;52.492;13.434;2023-03-04T05:55:37;14.40;;;4.07;;
43337;SDS011;28933;52.492;13.434;2023-03-04T05:58:03;8.45;;;3.15;;
43337;SDS011;28933;52.492;13.434;2023-03-04T06:00:28;10.10;;;3.92;;
43337;SDS011;28933;52.492;13.434;2023-03-04T06:02:54;7.00;;;3.97;;
43337;SDS011;28933;52.492;13.434;2023-03-04T06:05:20;10.57;;;3.78;;
43337;SDS011;28933;52.492;13.434;2023-03-04T06:07:46;11.35;;;4.35;;
43337;SDS011;28933;52.492;13.434;2023-03-04T06:10:12;15.40;;;4.07;;
43337;SDS011;28933;52.492;13.434;2023-03-04T06:12:39;7.65;;;4.32;;
43337;SDS011;28933;52.492;13.434;2023-03-04T06:15:06;10.55;;;4.07;;
43337;SDS011;28933;52.492;13.434;2023-03-04T06:17:34;10.20;;;3.88;;
43337;SDS011;28933;52.492;13.434;2023-03-04T06:20:00;10.63;;;4.03;;
43337;SDS011;28933;52.492;13.434;2023-03-04T06:22:25;9.35;;;4.13;;
43337;SDS011;28933;52.492;13.434;2023-03-04T06:24:51;9.52;;;4.15;;
43337;SDS011;28933;52.492;13.434;2023-03-04T06:27:17;10.73;;;4.43;;
43337;SDS011;28933;52.492;13.434;2023-03-04T06:29:42;8.77;;;3.53;;
43337;SDS011;28933;52.492;13.434;2023-03-04T06:32:08;13.93;;;4.57;;
43337;SDS011;28933;52.492;13.434;2023-03-04T06:34:34;7.30;;;3.50;;
43337;SDS011;28933;52.492;13.434;2023-03-04T06:37:00;10.90;;;4.03;;
43337;SDS011;28933;52.492;13.434;2023-03-04T06:39:25;7.43;;;3.97;;
43337;SDS011;28933;52.492;13.434;2023-03-04T06:41:51;11.25;;;4.15;;
43337;SDS011;28933;52.492;13.434;2023-03-04T06:44:17;9.07;;;3.00;;
43337;SDS011;28933;52.492;13.434;2023-03-04T06:46:42;11.25;;;3.75;;
43337;SDS011;28933;52.492;13.434;2023-03-04T06:49:08;9.05;;;3.45;;
43337;SDS011;28933;52.492;13.434;2023-03-04T06:51:34;8.07;;;3.75;;
43337;SDS011;28933;52.492;13.434;2023-03-04T06:54:00;10.40;;;3.78;;
43337;SDS011;28933;52.492;13.434;2023-03-04T06:56:25;7.90;;;3.50;;
43337;SDS011;28933;52.492;13.434;2023-03-04T06:58:51;7.45;;;3.15;;
43337;SDS011;28933;52.492;13.434;2023-03-04T07:03:48;8.98;;;3.92;;
43337;SDS011;28933;52.492;13.434;2023-03-04T07:06:16;8.73;;;3.33;;
43337;SDS011;28933;52.492;13.434;2023-03-04T07:08:43;9.88;;;4.43;;
43337;SDS011;28933;52.492;13.434;2023-03-04T07:11:10;11.13;;;4.28;;
43337;SDS011;28933;52.492;13.434;2023-03-04T07:13:36;9.13;;;4.43;;
43337;SDS011;28933;52.492;13.434;2023-03-04T07:16:05;10.05;;;3.83;;
43337;SDS011;28933;52.492;13.434;2023-03-04T07:18:31;9.70;;;3.50;;
43337;SDS011;28933;52.492;13.434;2023-03-04T07:20:57;7.40;;;3.80;;
43337;SDS011;28933;52.492;13.434;2023-03-04T07:23:22;10.80;;;4.68;;
43337;SDS011;28933;52.492;13.434;2023-03-04T07:25:48;11.80;;;4.50;;
43337;SDS011;28933;52.492;13.434;2023-03-04T07:28:14;12.82;;;4.28;;
43337;SDS011;28933;52.492;13.434;2023-03-04T07:30:41;11.52;;;4.10;;
43337;SDS011;28933;52.492;13.434;2023-03-04T07:33:06;10.23;;;4.13;;
43337;SDS011;28933;52.492;13.434;2023-03-04T07:35:32;8.00;;;3.75;;
43337;SDS011;28933;52.492;13.434;2023-03-04T07:37:58;11.15;;;4.20;;
43337;SDS011;28933;52.492;13.434;2023-03-04T07:40:23;8.82;;;3.92;;
43337;SDS011;28933;52.492;13.434;2023-03-04T07:42:49;9.48;;;3.80;;
43337;SDS011;28933;52.492;13.434;2023-03-04T07:45:16;9.07;;;4.10;;
43337;SDS011;28933;52.492;13.434;2023-03-04T07:47:41;10.38;;;4.40;;
43337;SDS011;28933;52.492;13.434;2023-03-04T07:50:08;8.05;;;4.20;;
43337;SDS011;28933;52.492;13.434;2023-03-04T07:52:41;8.25;;;3.53;;
43337;SDS011;28933;52.492;13.434;2023-03-04T07:55:08;7.05;;;3.78;;
43337;SDS011;28933;52.492;13.434;2023-03-04T07:57:37;7.88;;;4.45;;
43337;SDS011;28933;52.492;13.434;2023-03-04T08:00:03;12.65;;;5.85;;
43337;SDS011;28933;52.492;13.434;2023-03-04T08:02:30;9.60;;;4.50;;
43337;SDS011;28933;52.492;13.434;2023-03-04T08:04:56;6.88;;;3.63;;
43337;SDS011;28933;52.492;13.434;2023-03-04T08:07:22;5.90;;;3.35;;
43337;SDS011;28933;52.492;13.434;2023-03-04T08:09:47;7.05;;;3.40;;
43337;SDS011;28933;52.492;13.434;2023-03-04T08:12:13;8.15;;;3.45;;
43337;SDS011;28933;52.492;13.434;2023-03-04T08:14:39;4.00;;;2.75;;
43337;SDS011;28933;52.492;13.434;2023-03-04T08:17:04;4.38;;;3.22;;
43337;SDS011;28933;52.492;13.434;2023-03-04T08:19:30;9.18;;;3.25;;
43337;SDS011;28933;52.492;13.434;2023-03-04T08:21:55;3.53;;;2.35;;
43337;SDS011;28933;52.492;13.434;2023-03-04T08:24:21;7.40;;;2.90;;
43337;SDS011;28933;52.492;13.434;2023-03-04T08:26:47;4.00;;;2.47;;
43337;SDS011;28933;52.492;13.434;2023-03-04T08:29:18;3.90;;;2.60;;
43337;SDS011;28933;52.492;13.434;2023-03-04T08:31:47;5.60;;;2.55;;
43337;SDS011;28933;52.492;13.434;2023-03-04T08:34:14;4.00;;;2.42;;
43337;SDS011;28933;52.492;13.434;2023-03-04T08:36:40;8.40;;;2.47;;
43337;SDS011;28933;52.492;13.434;2023-03-04T08:39:10;4.93;;;2.40;;
43337;SDS011;28933;52.492;13.434;2023-03-04T08:41:37;5.53;;;2.40;;
43337;SDS011;28933;52.492;13.434;2023-03-04T08:44:03;5.32;;;2.38;;
43337;SDS011;28933;52.492;13.434;2023-03-04T08:46:29;4.78;;;2.33;;
43337;SDS011;28933;52.492;13.434;2023-03-04T08:48:55;6.43;;;2.22;;
43337;SDS011;28933;52.492;13.434;2023-03-04T08:51:20;6.13;;;2.70;;
43337;SDS011;28933;52.492;13.434;2023-03-04T08:53:46;6.28;;;2.13;;
43337;SDS011;28933;52.492;13.434;2023-03-04T08:56:12;7.25;;;2.42;;
43337;SDS011;28933;52.492;13.434;2023-03-04T08:58:38;7.82;;;2.08;;
43337;SDS011;28933;52.492;13.434;2023-03-04T09:01:04;6.63;;;2.58;;
43337;SDS011;28933;52.492;13.434;2023-03-04T09:03:33;6.88;;;2.50;;
43337;SDS011;28933;52.492;13.434;2023-03-04T09:06:00;6.22;;;2.67;;
43337;SDS011;28933;52.492;13.434;2023-03-04T09:08:26;10.07;;;2.50;;
43337;SDS011;28933;52.492;13.434;2023-03-04T09:10:53;8.15;;;2.50;;
43337;SDS011;28933;52.492;13.434;2023-03-04T09:13:19;9.02;;;3.13;;
43337;SDS011;28933;52.492;13.434;2023-03-04T09:15:48;6.18;;;2.13;;
43337;SDS011;28933;52.492;13.434;2023-03-04T09:18:15;7.68;;;2.65;;
43337;SDS011;28933;52.492;13.434;2023-03-04T09:20:42;6.38;;;2.75;;
43337;SDS011;28933;52.492;13.434;2023-03-04T09:23:09;4.53;;;2.03;;
43337;SDS011;28933;52.492;13.434;2023-03-04T09:25:35;4.15;;;1.90;;
43337;SDS011;28933;52.492;13.434;2023-03-04T09:28:02;12.27;;;2.60;;
43337;SDS011;28933;52.492;13.434;2023-03-04T09:30:28;6.88;;;2.50;;
43337;SDS011;28933;52.492;13.434;2023-03-04T09:32:54;7.97;;;2.35;;
43337;SDS011;28933;52.492;13.434;2023-03-04T09:35:20;7.72;;;2.40;;
43337;SDS011;28933;52.492;13.434;2023-03-04T09:37:46;7.50;;;2.92;;
43337;SDS011;28933;52.492;13.434;2023-03-04T09:40:16;9.60;;;2.95;;
43337;SDS011;28933;52.492;13.434;2023-03-04T09:42:46;4.78;;;2.05;;
43337;SDS011;28933;52.492;13.434;2023-03-04T09:45:16;11.80;;;2.92;;
43337;SDS011;28933;52.492;13.434;2023-03-04T09:47:44;6.97;;;2.80;;
43337;SDS011;28933;52.492;13.434;2023-03-04T09:50:12;6.10;;;2.38;;
43337;SDS011;28933;52.492;13.434;2023-03-04T09:55:43;4.57;;;2.20;;
43337;SDS011;28933;52.492;13.434;2023-03-04T10:03:45;9.10;;;2.55;;
43337;SDS011;28933;52.492;13.434;2023-03-04T10:06:30;10.30;;;2.20;;
43337;SDS011;28933;52.492;13.434;2023-03-04T10:14:22;8.02;;;3.28;;
43337;SDS011;28933;52.492;13.434;2023-03-04T10:22:45;6.22;;;2.40;;
43337;SDS011;28933;52.492;13.434;2023-03-04T10:25:22;9.20;;;3.05;;
43337;SDS011;28933;52.492;13.434;2023-03-04T10:27:56;6.90;;;3.28;;
43337;SDS011;28933;52.492;13.434;2023-03-04T10:30:33;5.63;;;2.28;;
43337;SDS011;28933;52.492;13.434;2023-03-04T10:33:12;7.03;;;2.28;;
43337;SDS011;28933;52.492;13.434;2023-03-04T10:35:41;9.48;;;3.35;;
43337;SDS011;28933;52.492;13.434;2023-03-04T10:38:09;8.23;;;2.97;;
43337;SDS011;28933;52.492;13.434;2023-03-04T10:40:37;5.07;;;2.25;;
43337;SDS011;28933;52.492;13.434;2023-03-04T10:43:04;6.15;;;2.42;;
43337;SDS011;28933;52.492;13.434;2023-03-04T10:45:32;8.20;;;2.72;;
43337;SDS011;28933;52.492;13.434;2023-03-04T10:48:03;12.55;;;3.55;;
43337;SDS011;28933;52.492;13.434;2023-03-04T10:50:29;10.10;;;2.65;;
43337;SDS011;28933;52.492;13.434;2023-03-04T10:52:57;7.57;;;2.92;;
43337;SDS011;28933;52.492;13.434;2023-03-04T10:57:49;8.90;;;2.78;;
43337;SDS011;28933;52.492;13.434;2023-03-04T11:00:28;6.65;;;2.92;;
43337;SDS011;28933;52.492;13.434;2023-03-04T11:06:06;8.65;;;3.10;;
43337;SDS011;28933;52.492;13.434;2023-03-04T11:08:47;9.50;;;2.70;;
43337;SDS011;28933;52.492;13.434;2023-03-04T11:11:22;9.57;;;3.47;;
43337;SDS011;28933;52.492;13.434;2023-03-04T11:14:14;7.70;;;3.13;;
43337;SDS011;28933;52.492;13.434;2023-03-04T11:17:00;11.90;;;3.28;;
43337;SDS011;28933;52.492;13.434;2023-03-04T11:19:52;10.80;;;3.08;;
43337;SDS011;28933;52.492;13.434;2023-03-04T11:22:34;9.27;;;3.22;;
43337;SDS011;28933;52.492;13.434;2023-03-04T11:25:04;12.20;;;3.13;;
43337;SDS011;28933;52.492;13.434;2023-03-04T11:27:35;6.25;;;2.78;;
43337;SDS011;28933;52.492;13.434;2023-03-04T11:32:55;10.30;;;4.00;;
43337;SDS011;28933;52.492;13.434;2023-03-04T11:35:33;10.68;;;3.40;;
43337;SDS011;28933;52.492;13.434;2023-03-04T11:38:19;9.02;;;2.75;;
43337;SDS011;28933;52.492;13.434;2023-03-04T11:40:56;12.65;;;3.22;;
43337;SDS011;28933;52.492;13.434;2023-03-04T11:43:27;11.35;;;3.25;;
43337;SDS011;28933;52.492;13.434;2023-03-04T11:48:52;9.60;;;3.03;;
43337;SDS011;28933;52.492;13.434;2023-03-04T11:51:38;15.85;;;3.70;;
43337;SDS011;28933;52.492;13.434;2023-03-04T11:54:15;13.55;;;3.92;;
43337;SDS011;28933;52.492;13.434;2023-03-04T11:57:13;8.77;;;3.40;;
43337;SDS011;28933;52.492;13.434;2023-03-04T11:59:58;12.25;;;4.68;;
43337;SDS011;28933;52.492;13.434;2023-03-04T12:11:11;12.48;;;4.70;;
43337;SDS011;28933;52.492;13.434;2023-03-04T12:19:32;13.02;;;3.05;;
43337;SDS011;28933;52.492;13.434;2023-03-04T12:22:29;9.18;;;3.72;;
43337;SDS011;28933;52.492;13.434;2023-03-04T12:27:54;12.05;;;3.35;;
43337;SDS011;28933;52.492;13.434;2023-03-04T12:33:51;11.02;;;3.67;;
43337;SDS011;28933;52.492;13.434;2023-03-04T12:41:54;11.68;;;3.70;;
43337;SDS011;28933;52.492;13.434;2023-03-04T12:44:55;12.85;;;4.55;;
43337;SDS011;28933;52.492;13.434;2023-03-04T12:50:41;7.78;;;2.97;;
43337;SDS011;28933;52.492;13.434;2023-03-04T12:53:32;12.07;;;3.78;;
43337;SDS011;28933;52.492;13.434;2023-03-04T12:56:22;10.05;;;2.85;;
43337;SDS011;28933;52.492;13.434;2023-03-04T12:58:52;6.75;;;2.88;;
43337;SDS011;28933;52.492;13.434;2023-03-04T13:03:59;11.80;;;3.65;;
43337;SDS011;28933;52.492;13.434;2023-03-04T13:09:30;10.57;;;3.45;;
43337;SDS011;28933;52.492;13.434;2023-03-04T13:15:15;14.18;;;4.15;;
43337;SDS011;28933;52.492;13.434;2023-03-04T13:22:51;9.27;;;3.88;;
43337;SDS011;28933;52.492;13.434;2023-03-04T13:36:01;8.73;;;2.90;;
43337;SDS011;28933;52.492;13.434;2023-03-04T13:43:55;8.07;;;3.25;;
43337;SDS011;28933;52.492;13.434;2023-03-04T13:56:40;10.70;;;3.28;;
43337;SDS011;28933;52.492;13.434;2023-03-04T13:59:27;7.20;;;3.13;;
43337;SDS011;28933;52.492;13.434;2023-03-04T14:04:29;16.20;;;4.00;;
43337;SDS011;28933;52.492;13.434;2023-03-04T14:06:58;11.65;;;4.00;;
43337;SDS011;28933;52.492;13.434;2023-03-04T14:09:27;10.05;;;4.05;;
43337;SDS011;28933;52.492;13.434;2023-03-04T14:12:00;14.63;;;3.83;;
43337;SDS011;28933;52.492;13.434;2023-03-04T14:16:57;11.50;;;4.15;;
43337;SDS011;28933;52.492;13.434;2023-03-04T14:19:29;10.73;;;3.95;;
43337;SDS011;28933;52.492;13.434;2023-03-04T14:21:58;12.10;;;4.65;;
43337;SDS011;28933;52.492;13.434;2023-03-04T14:24:25;10.50;;;4.43;;
43337;SDS011;28933;52.492;13.434;2023-03-04T14:27:03;12.63;;;4.18;;
43337;SDS011;28933;52.492;13.434;2023-03-04T14:29:38;12.05;;;4.07;;
43337;SDS011;28933;52.492;13.434;2023-03-04T14:32:04;12.00;;;4.50;;
43337;SDS011;28933;52.492;13.434;2023-03-04T14:34:31;10.82;;;3.75;;
43337;SDS011;28933;52.492;13.434;2023-03-04T14:37:00;6.72;;;3.03;;
43337;SDS011;28933;52.492;13.434;2023-03-04T14:39:31;14.40;;;4.25;;
43337;SDS011;28933;52.492;13.434;2023-03-04T14:42:07;15.75;;;4.93;;
43337;SDS011;28933;52.492;13.434;2023-03-04T14:44:36;8.23;;;3.35;;
43337;SDS011;28933;52.492;13.434;2023-03-04T14:49:57;14.23;;;3.78;;
43337;SDS011;28933;52.492;13.434;2023-03-04T14:52:34;12.93;;;3.55;;
43337;SDS011;28933;52.492;13.434;2023-03-04T14:57:39;11.30;;;3.75;;
43337;SDS011;28933;52.492;13.434;2023-03-04T15:02:50;13.52;;;4.32;;
43337;SDS011;28933;52.492;13.434;2023-03-04T15:05:26;10.25;;;3.67;;
43337;SDS011;28933;52.492;13.434;2023-03-04T15:08:00;16.67;;;3.83;;
43337;SDS011;28933;52.492;13.434;2023-03-04T15:10:33;15.57;;;4.90;;
43337;SDS011;28933;52.492;13.434;2023-03-04T15:13:01;17.65;;;4.38;;
43337;SDS011;28933;52.492;13.434;2023-03-04T15:20:51;12.45;;;3.20;;
43337;SDS011;28933;52.492;13.434;2023-03-04T15:23:25;9.07;;;3.28;;
43337;SDS011;28933;52.492;13.434;2023-03-04T15:25:58;9.80;;;3.45;;
43337;SDS011;28933;52.492;13.434;2023-03-04T15:28:26;13.73;;;4.60;;
43337;SDS011;28933;52.492;13.434;2023-03-04T15:30:59;10.82;;;3.50;;
43337;SDS011;28933;52.492;13.434;2023-03-04T15:33:25;9.43;;;3.40;;
43337;SDS011;28933;52.492;13.434;2023-03-04T15:35:52;14.63;;;3.65;;
43337;SDS011;28933;52.492;13.434;2023-03-04T15:38:23;9.48;;;2.97;;
43337;SDS011;28933;52.492;13.434;2023-03-04T15:40:49;11.85;;;2.90;;
43337;SDS011;28933;52.492;13.434;2023-03-04T15:43:16;9.15;;;3.63;;
43337;SDS011;28933;52.492;13.434;2023-03-04T15:45:44;6.95;;;2.72;;
43337;SDS011;28933;52.492;13.434;2023-03-04T15:48:13;8.77;;;3.85;;
43337;SDS011;28933;52.492;13.434;2023-03-04T15:50:42;12.35;;;3.33;;
43337;SDS011;28933;52.492;13.434;2023-03-04T15:53:45;9.57;;;3.90;;
43337;SDS011;28933;52.492;13.434;2023-03-04T15:56:06;8.45;;;3.35;;
43337;SDS011;28933;52.492;13.434;2023-03-04T15:58:35;17.08;;;4.05;;
43337;SDS011;28933;52.492;13.434;2023-03-04T16:01:03;14.30;;;5.40;;
43337;SDS011;28933;52.492;13.434;2023-03-04T16:03:29;13.90;;;3.40;;
43337;SDS011;28933;52.492;13.434;2023-03-04T16:05:55;9.45;;;3.92;;
43337;SDS011;28933;52.492;13.434;2023-03-04T16:08:22;11.90;;;3.67;;
43337;SDS011;28933;52.492;13.434;2023-03-04T16:10:51;12.60;;;4.22;;
43337;SDS011;28933;52.492;13.434;2023-03-04T16:13:18;12.73;;;4.32;;
43337;SDS011;28933;52.492;13.434;2023-03-04T16:15:46;9.65;;;3.95;;
43337;SDS011;28933;52.492;13.434;2023-03-04T16:18:13;15.88;;;4.20;;
43337;SDS011;28933;52.492;13.434;2023-03-04T16:20:40;13.77;;;4.03;;
43337;SDS011;28933;52.492;13.434;2023-03-04T16:23:12;9.65;;;3.30;;
43337;SDS011;28933;52.492;13.434;2023-03-04T16:25:43;11.63;;;4.13;;
43337;SDS011;28933;52.492;13.434;2023-03-04T16:28:11;14.80;;;3.90;;
43337;SDS011;28933;52.492;13.434;2023-03-04T16:30:37;9.52;;;3.80;;
43337;SDS011;28933;52.492;13.434;2023-03-04T16:33:02;14.30;;;4.53;;
43337;SDS011;28933;52.492;13.434;2023-03-04T16:35:28;11.35;;;3.38;;
43337;SDS011;28933;52.492;13.434;2023-03-04T16:37:54;8.70;;;4.30;;